sensor_id;sensor_type;location;lat;lon;timestamp;P1;durP1;ratioP1;P2;durP2;ratioP2
76761;SDS011;65705;51.032;13.790;2023-06-22T00:01:27;12.68;;;6.05;;
76761;SDS011;65705;51.032;13.790;2023-06-22T00:03:53;8.70;;;5.93;;
76761;SDS011;65705;51.032;13.790;2023-06-22T00:06:19;11.68;;;6.85;;
76761;SDS011;65705;51.032;13.790;2023-06-22T00:08:45;12.77;;;7.03;;
76761;SDS011;65705;51.032;13.790;2023-06-22T00:11:11;11.30;;;6.28;;
76761;SDS011;65705;51.032;13.790;2023-06-22T00:13:37;9.57;;;6.22;;
76761;SDS011;65705;51.032;13.790;2023-06-22T00:16:03;9.48;;;6.53;;
76761;SDS011;65705;51.032;13.790;2023-06-22T00:18:29;13.25;;;6.65;;
76761;SDS011;65705;51.032;13.790;2023-06-22T00:20:56;9.57;;;6.30;;
76761;SDS011;65705;51.032;13.790;2023-06-22T00:23:26;9.23;;;6.20;;
76761;SDS011;65705;51.032;13.790;2023-06-22T00:25:52;9.23;;;5.88;;
76761;SDS011;65705;51.032;13.790;2023-06-22T00:28:18;13.55;;;6.40;;
76761;SDS011;65705;51.032;13.790;2023-06-22T00:30:43;12.25;;;6.82;;
76761;SDS011;65705;51.032;13.790;2023-06-22T00:33:10;8.13;;;5.95;;
76761;SDS011;65705;51.032;13.790;2023-06-22T00:35:36;9.50;;;6.15;;
76761;SDS011;65705;51.032;13.790;2023-06-22T00:38:02;9.40;;;6.63;;
76761;SDS011;65705;51.032;13.790;2023-06-22T00:40:30;9.65;;;5.95;;
76761;SDS011;65705;51.032;13.790;2023-06-22T00:42:57;10.90;;;7.13;;
76761;SDS011;65705;51.032;13.790;2023-06-22T00:45:23;9.40;;;6.45;;
76761;SDS011;65705;51.032;13.790;2023-06-22T00:47:52;11.65;;;7.03;;
76761;SDS011;65705;51.032;13.790;2023-06-22T00:50:20;9.80;;;6.38;;
76761;SDS011;65705;51.032;13.790;2023-06-22T00:52:56;10.23;;;6.43;;
76761;SDS011;65705;51.032;13.790;2023-06-22T00:55:24;15.15;;;6.63;;
76761;SDS011;65705;51.032;13.790;2023-06-22T00:57:51;9.45;;;6.25;;
76761;SDS011;65705;51.032;13.790;2023-06-22T01:00:22;10.18;;;6.55;;
76761;SDS011;65705;51.032;13.790;2023-06-22T01:02:50;11.50;;;6.53;;
76761;SDS011;65705;51.032;13.790;2023-06-22T01:05:18;12.02;;;7.40;;
76761;SDS011;65705;51.032;13.790;2023-06-22T01:12:52;8.43;;;6.40;;
76761;SDS011;65705;51.032;13.790;2023-06-22T01:15:28;8.63;;;6.53;;
76761;SDS011;65705;51.032;13.790;2023-06-22T01:17:58;8.50;;;6.10;;
76761;SDS011;65705;51.032;13.790;2023-06-22T01:20:25;10.55;;;5.85;;
76761;SDS011;65705;51.032;13.790;2023-06-22T01:30:58;9.82;;;6.32;;
76761;SDS011;65705;51.032;13.790;2023-06-22T01:33:34;9.02;;;6.40;;
76761;SDS011;65705;51.032;13.790;2023-06-22T01:36:02;11.45;;;6.95;;
76761;SDS011;65705;51.032;13.790;2023-06-22T01:38:30;11.00;;;7.18;;
76761;SDS011;65705;51.032;13.790;2023-06-22T01:40:57;9.25;;;6.38;;
76761;SDS011;65705;51.032;13.790;2023-06-22T01:43:25;12.07;;;6.95;;
76761;SDS011;65705;51.032;13.790;2023-06-22T01:45:52;10.13;;;6.43;;
76761;SDS011;65705;51.032;13.790;2023-06-22T01:48:19;11.50;;;6.63;;
76761;SDS011;65705;51.032;13.790;2023-06-22T01:50:45;13.95;;;6.25;;
76761;SDS011;65705;51.032;13.790;2023-06-22T01:53:11;11.18;;;7.03;;
76761;SDS011;65705;51.032;13.790;2023-06-22T01:55:37;9.90;;;7.38;;
76761;SDS011;65705;51.032;13.790;2023-06-22T01:58:02;13.23;;;6.18;;
76761;SDS011;65705;51.032;13.790;2023-06-22T02:00:28;10.15;;;6.35;;
76761;SDS011;65705;51.032;13.790;2023-06-22T02:05:34;10.93;;;6.72;;
76761;SDS011;65705;51.032;13.790;2023-06-22T02:10:30;11.40;;;6.78;;
76761;SDS011;65705;51.032;13.790;2023-06-22T02:12:57;10.90;;;6.93;;
76761;SDS011;65705;51.032;13.790;2023-06-22T02:15:25;10.75;;;6.35;;
76761;SDS011;65705;51.032;13.790;2023-06-22T02:17:53;14.90;;;6.80;;
76761;SDS011;65705;51.032;13.790;2023-06-22T02:20:21;8.98;;;6.57;;
76761;SDS011;65705;51.032;13.790;2023-06-22T02:22:49;11.55;;;7.10;;
76761;SDS011;65705;51.032;13.790;2023-06-22T02:25:15;12.90;;;7.43;;
76761;SDS011;65705;51.032;13.790;2023-06-22T02:27:41;10.80;;;7.00;;
76761;SDS011;65705;51.032;13.790;2023-06-22T02:30:08;10.75;;;7.15;;
76761;SDS011;65705;51.032;13.790;2023-06-22T02:32:38;10.13;;;6.78;;
76761;SDS011;65705;51.032;13.790;2023-06-22T02:35:07;9.98;;;6.43;;
76761;SDS011;65705;51.032;13.790;2023-06-22T02:37:34;10.38;;;7.15;;
76761;SDS011;65705;51.032;13.790;2023-06-22T02:40:01;11.60;;;6.90;;
76761;SDS011;65705;51.032;13.790;2023-06-22T02:42:28;13.00;;;6.82;;
76761;SDS011;65705;51.032;13.790;2023-06-22T02:44:54;11.30;;;6.75;;
76761;SDS011;65705;51.032;13.790;2023-06-22T02:47:19;9.48;;;6.68;;
76761;SDS011;65705;51.032;13.790;2023-06-22T02:49:45;9.55;;;6.78;;
76761;SDS011;65705;51.032;13.790;2023-06-22T02:52:12;9.50;;;6.80;;
76761;SDS011;65705;51.032;13.790;2023-06-22T02:54:38;9.80;;;6.85;;
76761;SDS011;65705;51.032;13.790;2023-06-22T02:57:03;13.10;;;7.53;;
76761;SDS011;65705;51.032;13.790;2023-06-22T02:59:30;10.75;;;7.13;;
76761;SDS011;65705;51.032;13.790;2023-06-22T03:02:02;11.10;;;7.05;;
76761;SDS011;65705;51.032;13.790;2023-06-22T03:04:31;11.85;;;6.85;;
76761;SDS011;65705;51.032;13.790;2023-06-22T03:06:57;12.15;;;6.93;;
76761;SDS011;65705;51.032;13.790;2023-06-22T03:09:26;13.95;;;6.97;;
76761;SDS011;65705;51.032;13.790;2023-06-22T03:11:54;12.85;;;7.10;;
76761;SDS011;65705;51.032;13.790;2023-06-22T03:14:21;11.38;;;7.47;;
76761;SDS011;65705;51.032;13.790;2023-06-22T03:16:47;10.43;;;6.80;;
76761;SDS011;65705;51.032;13.790;2023-06-22T03:19:13;11.27;;;7.35;;
76761;SDS011;65705;51.032;13.790;2023-06-22T03:21:39;12.30;;;7.05;;
76761;SDS011;65705;51.032;13.790;2023-06-22T03:24:06;9.60;;;6.90;;
76761;SDS011;65705;51.032;13.790;2023-06-22T03:26:32;12.43;;;7.90;;
76761;SDS011;65705;51.032;13.790;2023-06-22T03:28:58;12.80;;;7.32;;
76761;SDS011;65705;51.032;13.790;2023-06-22T03:31:24;11.80;;;6.88;;
76761;SDS011;65705;51.032;13.790;2023-06-22T03:33:50;11.15;;;6.93;;
76761;SDS011;65705;51.032;13.790;2023-06-22T03:36:16;12.65;;;6.85;;
76761;SDS011;65705;51.032;13.790;2023-06-22T03:38:48;11.60;;;6.80;;
76761;SDS011;65705;51.032;13.790;2023-06-22T03:41:15;14.52;;;6.72;;
76761;SDS011;65705;51.032;13.790;2023-06-22T03:43:42;13.25;;;6.78;;
76761;SDS011;65705;51.032;13.790;2023-06-22T03:46:08;11.50;;;6.88;;
76761;SDS011;65705;51.032;13.790;2023-06-22T03:48:33;11.48;;;6.55;;
76761;SDS011;65705;51.032;13.790;2023-06-22T03:50:59;10.88;;;7.57;;
76761;SDS011;65705;51.032;13.790;2023-06-22T03:53:26;12.05;;;7.13;;
76761;SDS011;65705;51.032;13.790;2023-06-22T03:55:52;13.00;;;7.13;;
76761;SDS011;65705;51.032;13.790;2023-06-22T03:58:18;10.63;;;7.10;;
76761;SDS011;65705;51.032;13.790;2023-06-22T04:00:46;10.80;;;6.70;;
76761;SDS011;65705;51.032;13.790;2023-06-22T04:03:16;10.57;;;7.00;;
76761;SDS011;65705;51.032;13.790;2023-06-22T04:05:44;11.43;;;7.05;;
76761;SDS011;65705;51.032;13.790;2023-06-22T04:08:10;11.27;;;7.43;;
76761;SDS011;65705;51.032;13.790;2023-06-22T04:10:36;18.67;;;9.07;;
76761;SDS011;65705;51.032;13.790;2023-06-22T04:13:01;15.80;;;8.10;;
76761;SDS011;65705;51.032;13.790;2023-06-22T04:15:27;20.60;;;13.60;;
76761;SDS011;65705;51.032;13.790;2023-06-22T04:17:54;12.48;;;8.20;;
76761;SDS011;65705;51.032;13.790;2023-06-22T04:20:20;13.25;;;7.45;;
76761;SDS011;65705;51.032;13.790;2023-06-22T04:22:46;11.68;;;6.78;;
76761;SDS011;65705;51.032;13.790;2023-06-22T04:25:12;14.23;;;6.53;;
76761;SDS011;65705;51.032;13.790;2023-06-22T04:27:38;11.13;;;6.65;;
76761;SDS011;65705;51.032;13.790;2023-06-22T04:30:06;10.88;;;6.38;;
76761;SDS011;65705;51.032;13.790;2023-06-22T04:32:33;12.68;;;6.55;;
76761;SDS011;65705;51.032;13.790;2023-06-22T04:35:01;10.63;;;6.53;;
76761;SDS011;65705;51.032;13.790;2023-06-22T04:37:30;11.63;;;7.63;;
76761;SDS011;65705;51.032;13.790;2023-06-22T04:39:56;9.95;;;6.32;;
76761;SDS011;65705;51.032;13.790;2023-06-22T04:42:22;10.52;;;6.60;;
76761;SDS011;65705;51.032;13.790;2023-06-22T04:44:48;10.88;;;6.28;;
76761;SDS011;65705;51.032;13.790;2023-06-22T04:47:13;12.70;;;6.55;;
76761;SDS011;65705;51.032;13.790;2023-06-22T04:49:39;13.70;;;7.20;;
76761;SDS011;65705;51.032;13.790;2023-06-22T04:52:09;13.45;;;6.90;;
76761;SDS011;65705;51.032;13.790;2023-06-22T04:54:37;14.38;;;6.95;;
76761;SDS011;65705;51.032;13.790;2023-06-22T04:57:04;14.32;;;6.65;;
76761;SDS011;65705;51.032;13.790;2023-06-22T04:59:35;9.07;;;6.20;;
76761;SDS011;65705;51.032;13.790;2023-06-22T05:02:02;10.65;;;6.60;;
76761;SDS011;65705;51.032;13.790;2023-06-22T05:04:28;13.57;;;6.72;;
76761;SDS011;65705;51.032;13.790;2023-06-22T05:06:58;16.27;;;6.50;;
76761;SDS011;65705;51.032;13.790;2023-06-22T05:09:25;11.23;;;6.35;;
76761;SDS011;65705;51.032;13.790;2023-06-22T05:11:51;15.88;;;6.82;;
76761;SDS011;65705;51.032;13.790;2023-06-22T05:14:17;13.13;;;7.72;;
76761;SDS011;65705;51.032;13.790;2023-06-22T05:16:43;10.43;;;7.22;;
76761;SDS011;65705;51.032;13.790;2023-06-22T05:19:10;10.95;;;7.20;;
76761;SDS011;65705;51.032;13.790;2023-06-22T05:21:36;10.40;;;7.20;;
76761;SDS011;65705;51.032;13.790;2023-06-22T05:24:02;17.73;;;6.97;;
76761;SDS011;65705;51.032;13.790;2023-06-22T05:26:32;13.40;;;6.90;;
76761;SDS011;65705;51.032;13.790;2023-06-22T05:28:59;14.65;;;7.15;;
76761;SDS011;65705;51.032;13.790;2023-06-22T05:31:26;9.98;;;6.75;;
76761;SDS011;65705;51.032;13.790;2023-06-22T05:33:53;11.05;;;6.95;;
76761;SDS011;65705;51.032;13.790;2023-06-22T05:36:20;10.93;;;6.85;;
76761;SDS011;65705;51.032;13.790;2023-06-22T05:38:47;10.65;;;7.63;;
76761;SDS011;65705;51.032;13.790;2023-06-22T05:41:13;13.00;;;6.90;;
76761;SDS011;65705;51.032;13.790;2023-06-22T05:43:39;10.82;;;6.10;;
76761;SDS011;65705;51.032;13.790;2023-06-22T05:46:05;12.38;;;6.93;;
76761;SDS011;65705;51.032;13.790;2023-06-22T05:48:31;9.40;;;6.78;;
76761;SDS011;65705;51.032;13.790;2023-06-22T05:50:57;14.52;;;7.38;;
76761;SDS011;65705;51.032;13.790;2023-06-22T05:53:23;11.75;;;6.65;;
76761;SDS011;65705;51.032;13.790;2023-06-22T05:55:49;9.85;;;6.50;;
76761;SDS011;65705;51.032;13.790;2023-06-22T05:58:15;12.43;;;7.00;;
76761;SDS011;65705;51.032;13.790;2023-06-22T06:00:41;11.23;;;6.95;;
76761;SDS011;65705;51.032;13.790;2023-06-22T06:03:08;10.68;;;7.07;;
76761;SDS011;65705;51.032;13.790;2023-06-22T06:05:34;11.57;;;6.25;;
76761;SDS011;65705;51.032;13.790;2023-06-22T06:08:01;11.35;;;6.28;;
76761;SDS011;65705;51.032;13.790;2023-06-22T06:10:28;13.75;;;6.55;;
76761;SDS011;65705;51.032;13.790;2023-06-22T06:12:57;11.27;;;7.10;;
76761;SDS011;65705;51.032;13.790;2023-06-22T06:15:22;14.90;;;7.25;;
76761;SDS011;65705;51.032;13.790;2023-06-22T06:17:49;15.10;;;6.68;;
76761;SDS011;65705;51.032;13.790;2023-06-22T06:20:20;12.68;;;6.70;;
76761;SDS011;65705;51.032;13.790;2023-06-22T06:22:49;8.52;;;5.80;;
76761;SDS011;65705;51.032;13.790;2023-06-22T06:25:15;10.93;;;6.68;;
76761;SDS011;65705;51.032;13.790;2023-06-22T06:27:42;13.52;;;7.53;;
76761;SDS011;65705;51.032;13.790;2023-06-22T06:30:09;8.68;;;6.28;;
76761;SDS011;65705;51.032;13.790;2023-06-22T06:32:36;10.52;;;6.35;;
76761;SDS011;65705;51.032;13.790;2023-06-22T06:35:01;10.07;;;6.40;;
76761;SDS011;65705;51.032;13.790;2023-06-22T06:37:27;11.10;;;6.43;;
76761;SDS011;65705;51.032;13.790;2023-06-22T06:39:53;9.52;;;6.68;;
76761;SDS011;65705;51.032;13.790;2023-06-22T06:42:19;9.52;;;6.22;;
76761;SDS011;65705;51.032;13.790;2023-06-22T06:44:45;9.48;;;6.55;;
76761;SDS011;65705;51.032;13.790;2023-06-22T06:47:10;10.50;;;5.95;;
76761;SDS011;65705;51.032;13.790;2023-06-22T06:49:36;9.60;;;6.82;;
76761;SDS011;65705;51.032;13.790;2023-06-22T06:52:02;10.77;;;6.78;;
76761;SDS011;65705;51.032;13.790;2023-06-22T06:54:28;9.68;;;6.55;;
76761;SDS011;65705;51.032;13.790;2023-06-22T06:56:53;12.13;;;6.35;;
76761;SDS011;65705;51.032;13.790;2023-06-22T06:59:19;10.32;;;6.85;;
76761;SDS011;65705;51.032;13.790;2023-06-22T07:01:45;8.95;;;5.90;;
76761;SDS011;65705;51.032;13.790;2023-06-22T07:04:10;8.82;;;6.53;;
76761;SDS011;65705;51.032;13.790;2023-06-22T07:06:36;11.85;;;6.47;;
76761;SDS011;65705;51.032;13.790;2023-06-22T07:09:02;12.07;;;7.13;;
76761;SDS011;65705;51.032;13.790;2023-06-22T07:11:28;9.27;;;6.70;;
76761;SDS011;65705;51.032;13.790;2023-06-22T07:13:54;8.32;;;6.35;;
76761;SDS011;65705;51.032;13.790;2023-06-22T07:16:20;11.55;;;6.88;;
76761;SDS011;65705;51.032;13.790;2023-06-22T07:18:46;16.25;;;8.07;;
76761;SDS011;65705;51.032;13.790;2023-06-22T07:21:12;9.82;;;6.95;;
76761;SDS011;65705;51.032;13.790;2023-06-22T07:23:37;16.35;;;8.40;;
76761;SDS011;65705;51.032;13.790;2023-06-22T07:26:03;9.98;;;7.05;;
76761;SDS011;65705;51.032;13.790;2023-06-22T07:28:31;13.85;;;7.20;;
76761;SDS011;65705;51.032;13.790;2023-06-22T07:31:02;19.25;;;7.53;;
76761;SDS011;65705;51.032;13.790;2023-06-22T07:33:29;15.68;;;7.38;;
76761;SDS011;65705;51.032;13.790;2023-06-22T07:35:55;10.23;;;8.02;;
76761;SDS011;65705;51.032;13.790;2023-06-22T07:38:21;15.10;;;7.57;;
76761;SDS011;65705;51.032;13.790;2023-06-22T07:40:46;9.15;;;7.10;;
76761;SDS011;65705;51.032;13.790;2023-06-22T07:43:12;8.07;;;6.53;;
76761;SDS011;65705;51.032;13.790;2023-06-22T07:45:38;10.57;;;8.18;;
76761;SDS011;65705;51.032;13.790;2023-06-22T07:48:06;9.95;;;7.63;;
76761;SDS011;65705;51.032;13.790;2023-06-22T07:50:32;9.15;;;6.60;;
76761;SDS011;65705;51.032;13.790;2023-06-22T07:52:58;8.95;;;6.72;;
76761;SDS011;65705;51.032;13.790;2023-06-22T07:55:23;9.23;;;6.85;;
76761;SDS011;65705;51.032;13.790;2023-06-22T07:57:49;9.65;;;6.70;;
76761;SDS011;65705;51.032;13.790;2023-06-22T08:00:17;12.82;;;8.02;;
76761;SDS011;65705;51.032;13.790;2023-06-22T08:02:43;12.43;;;7.10;;
76761;SDS011;65705;51.032;13.790;2023-06-22T08:05:11;10.55;;;8.05;;
76761;SDS011;65705;51.032;13.790;2023-06-22T08:07:37;11.90;;;7.10;;
76761;SDS011;65705;51.032;13.790;2023-06-22T08:10:04;9.82;;;6.32;;
76761;SDS011;65705;51.032;13.790;2023-06-22T08:12:31;8.40;;;6.32;;
76761;SDS011;65705;51.032;13.790;2023-06-22T08:14:57;9.13;;;6.70;;
76761;SDS011;65705;51.032;13.790;2023-06-22T08:17:23;9.65;;;6.68;;
76761;SDS011;65705;51.032;13.790;2023-06-22T08:19:50;7.78;;;6.03;;
76761;SDS011;65705;51.032;13.790;2023-06-22T08:22:15;9.35;;;5.47;;
76761;SDS011;65705;51.032;13.790;2023-06-22T08:24:42;9.80;;;6.32;;
76761;SDS011;65705;51.032;13.790;2023-06-22T08:27:07;9.35;;;6.35;;
76761;SDS011;65705;51.032;13.790;2023-06-22T08:29:42;9.63;;;6.15;;
76761;SDS011;65705;51.032;13.790;2023-06-22T08:32:08;8.57;;;5.55;;
76761;SDS011;65705;51.032;13.790;2023-06-22T08:34:34;7.50;;;5.60;;
76761;SDS011;65705;51.032;13.790;2023-06-22T08:37:01;11.20;;;5.72;;
76761;SDS011;65705;51.032;13.790;2023-06-22T08:39:31;9.35;;;5.40;;
76761;SDS011;65705;51.032;13.790;2023-06-22T08:41:57;8.60;;;5.50;;
76761;SDS011;65705;51.032;13.790;2023-06-22T08:44:23;10.00;;;5.28;;
76761;SDS011;65705;51.032;13.790;2023-06-22T08:46:49;8.63;;;5.15;;
76761;SDS011;65705;51.032;13.790;2023-06-22T08:49:14;7.88;;;5.50;;
76761;SDS011;65705;51.032;13.790;2023-06-22T08:51:40;11.23;;;5.50;;
76761;SDS011;65705;51.032;13.790;2023-06-22T08:54:06;8.23;;;5.65;;
76761;SDS011;65705;51.032;13.790;2023-06-22T08:56:31;9.45;;;6.20;;
76761;SDS011;65705;51.032;13.790;2023-06-22T08:58:57;9.45;;;5.90;;
76761;SDS011;65705;51.032;13.790;2023-06-22T09:01:23;9.10;;;5.90;;
76761;SDS011;65705;51.032;13.790;2023-06-22T09:03:49;10.23;;;6.03;;
76761;SDS011;65705;51.032;13.790;2023-06-22T09:06:22;9.55;;;5.90;;
76761;SDS011;65705;51.032;13.790;2023-06-22T09:08:48;8.75;;;5.90;;
76761;SDS011;65705;51.032;13.790;2023-06-22T09:11:14;8.32;;;5.60;;
76761;SDS011;65705;51.032;13.790;2023-06-22T09:13:40;9.43;;;6.15;;
76761;SDS011;65705;51.032;13.790;2023-06-22T09:16:05;8.30;;;5.63;;
76761;SDS011;65705;51.032;13.790;2023-06-22T09:18:32;7.88;;;5.57;;
76761;SDS011;65705;51.032;13.790;2023-06-22T09:20:58;8.43;;;5.93;;
76761;SDS011;65705;51.032;13.790;2023-06-22T09:23:24;10.85;;;6.07;;
76761;SDS011;65705;51.032;13.790;2023-06-22T09:25:50;8.32;;;5.70;;
76761;SDS011;65705;51.032;13.790;2023-06-22T09:28:16;9.20;;;5.65;;
76761;SDS011;65705;51.032;13.790;2023-06-22T09:30:45;7.78;;;6.03;;
76761;SDS011;65705;51.032;13.790;2023-06-22T09:33:10;13.68;;;6.07;;
76761;SDS011;65705;51.032;13.790;2023-06-22T09:35:36;8.35;;;5.65;;
76761;SDS011;65705;51.032;13.790;2023-06-22T09:38:02;8.13;;;5.15;;
76761;SDS011;65705;51.032;13.790;2023-06-22T09:40:28;8.80;;;5.53;;
76761;SDS011;65705;51.032;13.790;2023-06-22T09:42:53;9.18;;;5.28;;
76761;SDS011;65705;51.032;13.790;2023-06-22T09:45:19;8.82;;;6.38;;
76761;SDS011;65705;51.032;13.790;2023-06-22T09:47:45;10.88;;;5.72;;
76761;SDS011;65705;51.032;13.790;2023-06-22T09:50:11;9.38;;;5.55;;
76761;SDS011;65705;51.032;13.790;2023-06-22T09:52:37;9.85;;;5.55;;
76761;SDS011;65705;51.032;13.790;2023-06-22T09:55:03;9.95;;;5.50;;
76761;SDS011;65705;51.032;13.790;2023-06-22T09:57:29;9.77;;;5.63;;
76761;SDS011;65705;51.032;13.790;2023-06-22T09:59:55;8.50;;;5.90;;
76761;SDS011;65705;51.032;13.790;2023-06-22T10:02:21;9.50;;;5.20;;
76761;SDS011;65705;51.032;13.790;2023-06-22T10:04:47;8.13;;;5.43;;
76761;SDS011;65705;51.032;13.790;2023-06-22T10:07:14;8.60;;;6.00;;
76761;SDS011;65705;51.032;13.790;2023-06-22T10:09:39;7.55;;;5.47;;
76761;SDS011;65705;51.032;13.790;2023-06-22T10:12:05;8.32;;;5.88;;
76761;SDS011;65705;51.032;13.790;2023-06-22T10:14:31;9.40;;;5.90;;
76761;SDS011;65705;51.032;13.790;2023-06-22T10:16:57;11.05;;;5.30;;
76761;SDS011;65705;51.032;13.790;2023-06-22T10:19:23;9.18;;;6.07;;
76761;SDS011;65705;51.032;13.790;2023-06-22T10:21:48;7.10;;;5.30;;
76761;SDS011;65705;51.032;13.790;2023-06-22T10:24:14;8.65;;;5.70;;
76761;SDS011;65705;51.032;13.790;2023-06-22T10:26:40;7.97;;;5.85;;
76761;SDS011;65705;51.032;13.790;2023-06-22T10:29:05;12.65;;;6.07;;
76761;SDS011;65705;51.032;13.790;2023-06-22T10:31:31;7.50;;;5.85;;
76761;SDS011;65705;51.032;13.790;2023-06-22T10:33:57;15.85;;;7.13;;
76761;SDS011;65705;51.032;13.790;2023-06-22T10:36:22;11.48;;;7.35;;
76761;SDS011;65705;51.032;13.790;2023-06-22T10:38:48;10.10;;;6.80;;
76761;SDS011;65705;51.032;13.790;2023-06-22T10:41:14;12.23;;;6.40;;
76761;SDS011;65705;51.032;13.790;2023-06-22T10:43:41;9.07;;;5.95;;
76761;SDS011;65705;51.032;13.790;2023-06-22T10:46:07;7.93;;;5.75;;
76761;SDS011;65705;51.032;13.790;2023-06-22T10:48:32;9.00;;;6.32;;
76761;SDS011;65705;51.032;13.790;2023-06-22T10:50:59;7.80;;;6.05;;
76761;SDS011;65705;51.032;13.790;2023-06-22T10:53:24;9.75;;;6.32;;
76761;SDS011;65705;51.032;13.790;2023-06-22T10:55:50;9.25;;;5.90;;
76761;SDS011;65705;51.032;13.790;2023-06-22T10:58:17;8.88;;;6.00;;
76761;SDS011;65705;51.032;13.790;2023-06-22T11:00:44;9.40;;;6.13;;
76761;SDS011;65705;51.032;13.790;2023-06-22T11:03:10;9.95;;;7.43;;
76761;SDS011;65705;51.032;13.790;2023-06-22T11:05:36;8.98;;;6.40;;
76761;SDS011;65705;51.032;13.790;2023-06-22T11:08:01;21.58;;;6.47;;
76761;SDS011;65705;51.032;13.790;2023-06-22T11:10:27;14.68;;;6.90;;
76761;SDS011;65705;51.032;13.790;2023-06-22T11:12:53;9.30;;;6.10;;
76761;SDS011;65705;51.032;13.790;2023-06-22T11:15:20;7.72;;;5.40;;
76761;SDS011;65705;51.032;13.790;2023-06-22T11:17:46;8.57;;;5.75;;
76761;SDS011;65705;51.032;13.790;2023-06-22T11:20:12;8.18;;;5.47;;
76761;SDS011;65705;51.032;13.790;2023-06-22T11:22:38;10.25;;;6.03;;
76761;SDS011;65705;51.032;13.790;2023-06-22T11:25:05;8.90;;;6.13;;
76761;SDS011;65705;51.032;13.790;2023-06-22T11:27:31;9.73;;;5.82;;
76761;SDS011;65705;51.032;13.790;2023-06-22T11:29:57;11.75;;;5.43;;
76761;SDS011;65705;51.032;13.790;2023-06-22T11:32:23;9.70;;;5.82;;
76761;SDS011;65705;51.032;13.790;2023-06-22T11:34:49;10.55;;;6.07;;
76761;SDS011;65705;51.032;13.790;2023-06-22T11:37:15;8.75;;;6.28;;
76761;SDS011;65705;51.032;13.790;2023-06-22T11:39:41;9.43;;;5.90;;
76761;SDS011;65705;51.032;13.790;2023-06-22T11:42:07;8.98;;;6.03;;
76761;SDS011;65705;51.032;13.790;2023-06-22T11:44:34;9.18;;;6.00;;
76761;SDS011;65705;51.032;13.790;2023-06-22T11:47:00;9.80;;;6.30;;
76761;SDS011;65705;51.032;13.790;2023-06-22T11:49:29;8.18;;;5.85;;
76761;SDS011;65705;51.032;13.790;2023-06-22T11:51:55;7.25;;;5.55;;
76761;SDS011;65705;51.032;13.790;2023-06-22T11:54:20;8.82;;;6.40;;
76761;SDS011;65705;51.032;13.790;2023-06-22T11:56:46;14.95;;;5.90;;
76761;SDS011;65705;51.032;13.790;2023-06-22T11:59:12;12.40;;;6.40;;
76761;SDS011;65705;51.032;13.790;2023-06-22T12:01:38;7.40;;;5.97;;
76761;SDS011;65705;51.032;13.790;2023-06-22T12:04:04;9.38;;;5.95;;
76761;SDS011;65705;51.032;13.790;2023-06-22T12:06:31;11.05;;;7.57;;
76761;SDS011;65705;51.032;13.790;2023-06-22T12:08:58;9.88;;;7.50;;
76761;SDS011;65705;51.032;13.790;2023-06-22T12:11:24;8.10;;;6.07;;
76761;SDS011;65705;51.032;13.790;2023-06-22T12:13:50;9.88;;;5.93;;
76761;SDS011;65705;51.032;13.790;2023-06-22T12:16:15;8.60;;;5.75;;
76761;SDS011;65705;51.032;13.790;2023-06-22T12:18:41;10.57;;;5.93;;
76761;SDS011;65705;51.032;13.790;2023-06-22T12:21:07;8.70;;;5.90;;
76761;SDS011;65705;51.032;13.790;2023-06-22T12:23:33;9.30;;;6.18;;
76761;SDS011;65705;51.032;13.790;2023-06-22T12:25:58;8.18;;;6.13;;
76761;SDS011;65705;51.032;13.790;2023-06-22T12:28:25;11.15;;;5.95;;
76761;SDS011;65705;51.032;13.790;2023-06-22T12:30:51;10.18;;;6.20;;
76761;SDS011;65705;51.032;13.790;2023-06-22T12:33:16;11.50;;;5.97;;
76761;SDS011;65705;51.032;13.790;2023-06-22T12:35:43;8.70;;;6.82;;
76761;SDS011;65705;51.032;13.790;2023-06-22T12:38:10;10.52;;;5.60;;
76761;SDS011;65705;51.032;13.790;2023-06-22T12:40:36;7.78;;;5.55;;
76761;SDS011;65705;51.032;13.790;2023-06-22T12:43:02;12.15;;;6.10;;
76761;SDS011;65705;51.032;13.790;2023-06-22T12:45:28;11.55;;;6.15;;
76761;SDS011;65705;51.032;13.790;2023-06-22T12:47:56;8.93;;;5.55;;
76761;SDS011;65705;51.032;13.790;2023-06-22T12:50:23;13.00;;;7.20;;
76761;SDS011;65705;51.032;13.790;2023-06-22T12:52:48;8.07;;;6.25;;
76761;SDS011;65705;51.032;13.790;2023-06-22T12:55:14;10.75;;;6.97;;
76761;SDS011;65705;51.032;13.790;2023-06-22T12:57:40;12.65;;;5.40;;
76761;SDS011;65705;51.032;13.790;2023-06-22T13:00:06;7.35;;;5.72;;
76761;SDS011;65705;51.032;13.790;2023-06-22T13:02:33;8.70;;;5.70;;
76761;SDS011;65705;51.032;13.790;2023-06-22T13:04:59;13.60;;;5.72;;
76761;SDS011;65705;51.032;13.790;2023-06-22T13:07:24;8.25;;;5.25;;
76761;SDS011;65705;51.032;13.790;2023-06-22T13:09:51;8.02;;;5.22;;
76761;SDS011;65705;51.032;13.790;2023-06-22T13:12:17;8.98;;;5.85;;
76761;SDS011;65705;51.032;13.790;2023-06-22T13:14:43;9.43;;;6.15;;
76761;SDS011;65705;51.032;13.790;2023-06-22T13:17:09;12.50;;;5.50;;
76761;SDS011;65705;51.032;13.790;2023-06-22T13:19:35;10.32;;;5.32;;
76761;SDS011;65705;51.032;13.790;2023-06-22T13:22:00;9.48;;;5.50;;
76761;SDS011;65705;51.032;13.790;2023-06-22T13:24:27;9.68;;;5.60;;
76761;SDS011;65705;51.032;13.790;2023-06-22T13:26:53;8.68;;;5.55;;
76761;SDS011;65705;51.032;13.790;2023-06-22T13:29:19;12.02;;;5.68;;
76761;SDS011;65705;51.032;13.790;2023-06-22T13:31:44;6.82;;;5.55;;
76761;SDS011;65705;51.032;13.790;2023-06-22T13:34:10;8.80;;;6.10;;
76761;SDS011;65705;51.032;13.790;2023-06-22T13:36:36;10.52;;;5.82;;
76761;SDS011;65705;51.032;13.790;2023-06-22T13:39:01;9.13;;;6.47;;
76761;SDS011;65705;51.032;13.790;2023-06-22T13:41:27;9.77;;;5.85;;
76761;SDS011;65705;51.032;13.790;2023-06-22T13:43:53;9.32;;;5.88;;
76761;SDS011;65705;51.032;13.790;2023-06-22T13:46:19;8.13;;;5.80;;
76761;SDS011;65705;51.032;13.790;2023-06-22T13:48:44;11.10;;;5.75;;
76761;SDS011;65705;51.032;13.790;2023-06-22T13:51:10;10.07;;;6.72;;
76761;SDS011;65705;51.032;13.790;2023-06-22T13:53:36;8.60;;;6.63;;
76761;SDS011;65705;51.032;13.790;2023-06-22T13:56:01;11.63;;;7.53;;
76761;SDS011;65705;51.032;13.790;2023-06-22T13:58:28;11.27;;;6.47;;
76761;SDS011;65705;51.032;13.790;2023-06-22T14:00:54;13.02;;;6.95;;
76761;SDS011;65705;51.032;13.790;2023-06-22T14:03:20;9.73;;;5.82;;
76761;SDS011;65705;51.032;13.790;2023-06-22T14:05:45;8.85;;;6.13;;
76761;SDS011;65705;51.032;13.790;2023-06-22T14:08:12;7.85;;;6.07;;
76761;SDS011;65705;51.032;13.790;2023-06-22T14:10:37;7.38;;;5.60;;
76761;SDS011;65705;51.032;13.790;2023-06-22T14:13:03;8.98;;;5.93;;
76761;SDS011;65705;51.032;13.790;2023-06-22T14:15:31;11.30;;;6.63;;
76761;SDS011;65705;51.032;13.790;2023-06-22T14:17:57;11.65;;;6.05;;
76761;SDS011;65705;51.032;13.790;2023-06-22T14:20:23;8.88;;;5.95;;
76761;SDS011;65705;51.032;13.790;2023-06-22T14:22:49;9.13;;;6.45;;
76761;SDS011;65705;51.032;13.790;2023-06-22T14:25:14;8.98;;;5.90;;
76761;SDS011;65705;51.032;13.790;2023-06-22T14:27:40;9.77;;;6.13;;
76761;SDS011;65705;51.032;13.790;2023-06-22T14:30:06;10.35;;;6.00;;
76761;SDS011;65705;51.032;13.790;2023-06-22T14:32:32;12.23;;;6.10;;
76761;SDS011;65705;51.032;13.790;2023-06-22T14:34:57;7.50;;;5.40;;
76761;SDS011;65705;51.032;13.790;2023-06-22T14:37:23;9.95;;;5.55;;
76761;SDS011;65705;51.032;13.790;2023-06-22T14:39:49;8.48;;;5.40;;
76761;SDS011;65705;51.032;13.790;2023-06-22T14:42:15;10.13;;;6.03;;